RPC7855 RPLC-RPLL
Flight info
| Callsign | RPC7855 |
|---|---|
| Flight time | 1h 9m |
| Altitude | 5000 |
| Route | OLIVA3F OLIVA OLIVA1D |
| Aircraft | C172/L-SFG/C |
Departure
| Time | 2026-05-04 10:09 |
|---|---|
| Airport | Clark International Airport / Clark Air Base (RPLC) |
Arrival
| Time | 2026-05-04 11:19 |
|---|---|
| Airport | Ninoy Aquino International Airport (RPLL) |
| Time | Latitude | Longitude | Altitude | Speed | Heading |
|---|---|---|---|---|---|
| 2026-05-04 09:52 | 15.19366 | 120.56153 | 435 ft | 0 kts | 112° |
| 2026-05-04 10:04 | 15.19397 | 120.56180 | 434 ft | 4 kts | 25° |
| 2026-05-04 10:04 | 15.19426 | 120.56200 | 433 ft | 4 kts | 57° |
| 2026-05-04 10:04 | 15.19429 | 120.56224 | 432 ft | 4 kts | 102° |
| 2026-05-04 10:04 | 15.19409 | 120.56252 | 431 ft | 5 kts | 152° |
| 2026-05-04 10:05 | 15.19369 | 120.56251 | 431 ft | 5 kts | 199° |
| 2026-05-04 10:05 | 15.19331 | 120.56235 | 432 ft | 6 kts | 200° |
| 2026-05-04 10:05 | 15.19286 | 120.56218 | 433 ft | 7 kts | 199° |
| 2026-05-04 10:05 | 15.19244 | 120.56200 | 435 ft | 5 kts | 202° |
| 2026-05-04 10:06 | 15.19214 | 120.56196 | 435 ft | 4 kts | 168° |
| 2026-05-04 10:06 | 15.19194 | 120.56207 | 435 ft | 0 kts | 134° |
| 2026-05-04 10:08 | 15.18732 | 120.56297 | 438 ft | 61 kts | 200° |
| 2026-05-04 10:08 | 15.18298 | 120.56081 | 546 ft | 72 kts | 200° |
| 2026-05-04 10:08 | 15.17853 | 120.55843 | 699 ft | 74 kts | 204° |
| 2026-05-04 10:08 | 15.17419 | 120.55588 | 872 ft | 71 kts | 202° |
| 2026-05-04 10:09 | 15.16989 | 120.55320 | 1026 ft | 72 kts | 205° |
| 2026-05-04 10:09 | 15.16562 | 120.55039 | 1171 ft | 73 kts | 206° |
| 2026-05-04 10:09 | 15.16144 | 120.54742 | 1335 ft | 72 kts | 210° |
| 2026-05-04 10:09 | 15.15726 | 120.54408 | 1463 ft | 76 kts | 214° |
| 2026-05-04 10:10 | 15.15318 | 120.54042 | 1611 ft | 78 kts | 218° |
| 2026-05-04 10:10 | 15.14931 | 120.53632 | 1752 ft | 80 kts | 221° |
| 2026-05-04 10:10 | 15.14563 | 120.53200 | 1892 ft | 82 kts | 234° |
| 2026-05-04 10:10 | 15.14328 | 120.52671 | 2039 ft | 82 kts | 246° |
| 2026-05-04 10:11 | 15.14002 | 120.52146 | 2135 ft | 89 kts | 228° |
| 2026-05-04 10:11 | 15.13537 | 120.51721 | 2226 ft | 94 kts | 212° |
| 2026-05-04 10:11 | 15.12971 | 120.51434 | 2387 ft | 88 kts | 191° |
| 2026-05-04 10:11 | 15.12357 | 120.51340 | 2495 ft | 90 kts | 173° |
| 2026-05-04 10:12 | 15.11747 | 120.51394 | 2651 ft | 87 kts | 168° |
| 2026-05-04 10:12 | 15.11117 | 120.51405 | 2763 ft | 91 kts | 178° |
| 2026-05-04 10:12 | 15.10495 | 120.51421 | 2901 ft | 90 kts | 169° |
| 2026-05-04 10:12 | 15.09852 | 120.51479 | 3026 ft | 92 kts | 174° |
| 2026-05-04 10:13 | 15.09210 | 120.51331 | 3127 ft | 101 kts | 208° |
| 2026-05-04 10:13 | 15.08747 | 120.50795 | 3274 ft | 98 kts | 243° |
| 2026-05-04 10:13 | 15.08458 | 120.50154 | 3388 ft | 100 kts | 252° |
| 2026-05-04 10:13 | 15.08190 | 120.49500 | 3484 ft | 102 kts | 229° |
| 2026-05-04 10:14 | 15.07534 | 120.49365 | 3494 ft | 98 kts | 144° |
| 2026-05-04 10:14 | 15.07192 | 120.49834 | 3738 ft | 74 kts | 107° |
| 2026-05-04 10:16 | 15.06042 | 120.53574 | 4534 ft | 74 kts | 90° |
| 2026-05-04 10:16 | 15.05892 | 120.54102 | 4621 ft | 79 kts | 102° |
| 2026-05-04 10:16 | 15.05717 | 120.54636 | 4748 ft | 77 kts | 92° |
| 2026-05-04 10:16 | 15.05617 | 120.55183 | 4870 ft | 77 kts | 94° |
| 2026-05-04 10:17 | 15.05482 | 120.55722 | 4964 ft | 79 kts | 99° |
| 2026-05-04 10:17 | 15.05270 | 120.56262 | 4991 ft | 82 kts | 106° |
| 2026-05-04 10:19 | 15.04135 | 120.60052 | 5046 ft | 79 kts | 102° |
| 2026-05-04 10:19 | 15.03863 | 120.60571 | 5037 ft | 80 kts | 108° |
| 2026-05-04 10:19 | 15.03796 | 120.61128 | 5015 ft | 77 kts | 80° |
| 2026-05-04 10:19 | 15.03834 | 120.61671 | 5008 ft | 77 kts | 81° |
| 2026-05-04 10:20 | 15.03869 | 120.62219 | 5023 ft | 74 kts | 78° |
| 2026-05-04 10:20 | 15.03959 | 120.62751 | 5002 ft | 76 kts | 75° |
| 2026-05-04 10:20 | 15.04046 | 120.63289 | 4991 ft | 77 kts | 76° |
| 2026-05-04 10:20 | 15.04104 | 120.63842 | 4997 ft | 76 kts | 83° |
| 2026-05-04 10:21 | 15.04078 | 120.64397 | 4976 ft | 79 kts | 84° |
| 2026-05-04 10:21 | 15.04102 | 120.64954 | 5001 ft | 75 kts | 81° |
| 2026-05-04 10:21 | 15.04101 | 120.65511 | 4980 ft | 78 kts | 84° |
| 2026-05-04 10:21 | 15.04127 | 120.66058 | 5005 ft | 75 kts | 77° |
| 2026-05-04 10:22 | 15.04090 | 120.67157 | 4896 ft | 92 kts | 121° |
| 2026-05-04 10:22 | 15.03551 | 120.67493 | 4976 ft | 87 kts | 154° |
| 2026-05-04 10:22 | 15.02876 | 120.67514 | 4897 ft | 103 kts | 179° |
| 2026-05-04 10:23 | 15.02211 | 120.67430 | 4978 ft | 95 kts | 175° |
| 2026-05-04 10:23 | 15.01538 | 120.67508 | 4928 ft | 93 kts | 147° |
| 2026-05-04 10:25 | 14.97961 | 120.69873 | 4962 ft | 90 kts | 144° |
| 2026-05-04 10:25 | 14.97424 | 120.70171 | 4987 ft | 87 kts | 136° |
| 2026-05-04 10:25 | 14.96903 | 120.70514 | 4993 ft | 87 kts | 135° |
| 2026-05-04 10:25 | 14.96410 | 120.70878 | 4994 ft | 88 kts | 135° |
| 2026-05-04 10:26 | 14.95926 | 120.71249 | 5011 ft | 85 kts | 131° |
| 2026-05-04 10:26 | 14.95445 | 120.71634 | 5000 ft | 87 kts | 130° |
| 2026-05-04 10:26 | 14.94922 | 120.71960 | 5008 ft | 92 kts | 149° |
| 2026-05-04 10:26 | 14.94291 | 120.72123 | 5018 ft | 93 kts | 161° |
| 2026-05-04 10:27 | 14.93625 | 120.72169 | 5013 ft | 96 kts | 166° |
| 2026-05-04 10:27 | 14.92962 | 120.72219 | 5040 ft | 94 kts | 166° |
| 2026-05-04 10:27 | 14.92305 | 120.72265 | 5059 ft | 96 kts | 165° |
| 2026-05-04 10:27 | 14.91659 | 120.72325 | 5230 ft | 91 kts | 169° |
| 2026-05-04 10:28 | 14.91000 | 120.72214 | 5325 ft | 98 kts | 189° |
| 2026-05-04 10:28 | 14.90361 | 120.71935 | 5422 ft | 103 kts | 202° |
| 2026-05-04 10:28 | 14.89704 | 120.71699 | 5551 ft | 96 kts | 171° |
| 2026-05-04 10:28 | 14.89142 | 120.71931 | 5681 ft | 81 kts | 122° |
| 2026-05-04 10:29 | 14.88876 | 120.72406 | 5805 ft | 76 kts | 104° |
| 2026-05-04 10:29 | 14.88649 | 120.72901 | 5921 ft | 76 kts | 104° |
| 2026-05-04 10:29 | 14.88425 | 120.73394 | 6021 ft | 77 kts | 104° |
| 2026-05-04 10:29 | 14.88181 | 120.73926 | 5995 ft | 85 kts | 106° |
| 2026-05-04 10:30 | 14.87914 | 120.74494 | 5986 ft | 87 kts | 106° |
| 2026-05-04 10:30 | 14.87642 | 120.75061 | 5985 ft | 89 kts | 107° |
| 2026-05-04 10:30 | 14.87364 | 120.75642 | 5986 ft | 90 kts | 107° |
| 2026-05-04 10:30 | 14.87084 | 120.76224 | 5987 ft | 90 kts | 107° |
| 2026-05-04 10:31 | 14.86804 | 120.76807 | 5987 ft | 91 kts | 108° |
| 2026-05-04 10:31 | 14.86467 | 120.77371 | 5989 ft | 93 kts | 117° |
| 2026-05-04 10:32 | 14.83317 | 120.80018 | 6001 ft | 99 kts | 136° |
| 2026-05-04 10:33 | 14.82747 | 120.80409 | 6003 ft | 99 kts | 137° |
| 2026-05-04 10:33 | 14.82171 | 120.80801 | 6001 ft | 99 kts | 138° |
| 2026-05-04 10:33 | 14.81594 | 120.81190 | 6001 ft | 99 kts | 137° |
| 2026-05-04 10:33 | 14.81013 | 120.81580 | 6002 ft | 99 kts | 137° |
| 2026-05-04 10:34 | 14.80430 | 120.81973 | 6002 ft | 99 kts | 138° |
| 2026-05-04 10:34 | 14.79850 | 120.82364 | 6001 ft | 99 kts | 139° |
| 2026-05-04 10:34 | 14.79269 | 120.82752 | 6001 ft | 99 kts | 138° |
| 2026-05-04 10:34 | 14.78682 | 120.83146 | 6000 ft | 99 kts | 139° |
| 2026-05-04 10:35 | 14.78103 | 120.83535 | 5999 ft | 99 kts | 139° |
| 2026-05-04 10:35 | 14.77463 | 120.83827 | 5994 ft | 105 kts | 168° |
| 2026-05-04 10:35 | 14.76752 | 120.83648 | 5994 ft | 110 kts | 210° |
| 2026-05-04 10:35 | 14.76281 | 120.83040 | 5996 ft | 109 kts | 253° |
| 2026-05-04 10:36 | 14.76272 | 120.82282 | 5998 ft | 103 kts | 294° |
| 2026-05-04 10:36 | 14.76582 | 120.81628 | 5999 ft | 98 kts | 317° |
| 2026-05-04 10:36 | 14.77042 | 120.81110 | 6002 ft | 97 kts | 321° |
| 2026-05-04 10:36 | 14.77427 | 120.80528 | 6006 ft | 103 kts | 290° |
| 2026-05-04 10:37 | 14.77340 | 120.79775 | 6009 ft | 110 kts | 243° |
| 2026-05-04 10:37 | 14.76781 | 120.79250 | 6005 ft | 109 kts | 197° |
| 2026-05-04 10:37 | 14.76061 | 120.79234 | 6003 ft | 102 kts | 152° |
| 2026-05-04 10:37 | 14.75533 | 120.79673 | 5998 ft | 96 kts | 122° |
| 2026-05-04 10:39 | 14.72583 | 120.82576 | 5984 ft | 97 kts | 130° |
| 2026-05-04 10:39 | 14.72065 | 120.83033 | 5986 ft | 97 kts | 130° |
| 2026-05-04 10:39 | 14.71552 | 120.83484 | 5984 ft | 97 kts | 131° |
| 2026-05-04 10:40 | 14.71034 | 120.83937 | 5986 ft | 97 kts | 130° |
| 2026-05-04 10:40 | 14.70517 | 120.84390 | 5986 ft | 97 kts | 131° |
| 2026-05-04 10:40 | 14.69995 | 120.84844 | 5985 ft | 97 kts | 131° |
| 2026-05-04 10:40 | 14.69476 | 120.85298 | 5988 ft | 97 kts | 131° |
| 2026-05-04 10:41 | 14.68957 | 120.85750 | 5989 ft | 98 kts | 132° |
| 2026-05-04 10:41 | 14.68437 | 120.86203 | 5989 ft | 98 kts | 132° |
| 2026-05-04 10:41 | 14.67909 | 120.86661 | 5986 ft | 98 kts | 131° |
| 2026-05-04 10:41 | 14.67393 | 120.87112 | 5986 ft | 97 kts | 131° |
| 2026-05-04 10:42 | 14.66867 | 120.87569 | 5985 ft | 97 kts | 131° |
| 2026-05-04 10:42 | 14.66350 | 120.88020 | 5984 ft | 97 kts | 131° |
| 2026-05-04 10:42 | 14.65834 | 120.88469 | 5988 ft | 97 kts | 130° |
| 2026-05-04 10:42 | 14.65315 | 120.88921 | 5991 ft | 97 kts | 131° |
| 2026-05-04 10:43 | 14.64795 | 120.89374 | 5991 ft | 98 kts | 130° |
| 2026-05-04 10:44 | 14.61123 | 120.92570 | 5984 ft | 97 kts | 131° |
| 2026-05-04 10:45 | 14.60598 | 120.93027 | 5989 ft | 97 kts | 131° |
| 2026-05-04 10:45 | 14.60081 | 120.93478 | 6005 ft | 97 kts | 131° |
| 2026-05-04 10:45 | 14.59567 | 120.93926 | 6000 ft | 97 kts | 131° |
| 2026-05-04 10:45 | 14.59045 | 120.94380 | 6003 ft | 97 kts | 131° |
| 2026-05-04 10:46 | 14.58526 | 120.94830 | 6003 ft | 97 kts | 131° |
| 2026-05-04 10:46 | 14.58015 | 120.95274 | 6001 ft | 96 kts | 131° |
| 2026-05-04 10:46 | 14.57501 | 120.95723 | 6000 ft | 96 kts | 131° |
| 2026-05-04 10:46 | 14.56987 | 120.96172 | 6000 ft | 96 kts | 132° |
| 2026-05-04 10:47 | 14.56476 | 120.96625 | 6004 ft | 96 kts | 131° |
| 2026-05-04 10:47 | 14.55963 | 120.97080 | 6005 ft | 97 kts | 131° |
| 2026-05-04 10:47 | 14.55449 | 120.97534 | 6006 ft | 97 kts | 131° |
| 2026-05-04 10:47 | 14.54922 | 120.97995 | 6006 ft | 97 kts | 133° |
| 2026-05-04 10:49 | 14.51239 | 121.01207 | 5998 ft | 99 kts | 130° |
| 2026-05-04 10:49 | 14.50757 | 121.01704 | 6003 ft | 96 kts | 124° |
| 2026-05-04 10:50 | 14.50306 | 121.02230 | 5991 ft | 98 kts | 129° |
| 2026-05-04 10:51 | 14.48265 | 121.05727 | 5953 ft | 89 kts | 23° |
| 2026-05-04 10:52 | 14.48876 | 121.05846 | 5990 ft | 88 kts | 10° |
| 2026-05-04 10:52 | 14.49492 | 121.05919 | 5993 ft | 90 kts | 10° |
| 2026-05-04 10:52 | 14.50116 | 121.05984 | 6024 ft | 88 kts | 7° |
| 2026-05-04 10:54 | 14.51599 | 121.03390 | 5841 ft | 113 kts | 270° |
| 2026-05-04 10:54 | 14.51675 | 121.02647 | 5921 ft | 99 kts | 278° |
| 2026-05-04 10:56 | 14.49332 | 121.02084 | 5890 ft | 81 kts | 43° |
| 2026-05-04 10:56 | 14.49758 | 121.02472 | 5904 ft | 81 kts | 41° |
| 2026-05-04 10:56 | 14.50170 | 121.02873 | 5909 ft | 83 kts | 45° |
| 2026-05-04 10:57 | 14.50557 | 121.03321 | 5932 ft | 81 kts | 48° |
| 2026-05-04 10:57 | 14.50937 | 121.03756 | 5938 ft | 83 kts | 44° |
| 2026-05-04 10:57 | 14.51428 | 121.04077 | 5940 ft | 85 kts | 14° |
| 2026-05-04 10:57 | 14.51989 | 121.03915 | 5935 ft | 95 kts | 324° |
| 2026-05-04 10:58 | 14.52230 | 121.03284 | 6019 ft | 94 kts | 271° |
| 2026-05-04 10:58 | 14.52157 | 121.02560 | 5934 ft | 109 kts | 251° |
| 2026-05-04 10:58 | 14.51689 | 121.01988 | 5967 ft | 107 kts | 215° |
| 2026-05-04 10:58 | 14.51108 | 121.01504 | 5992 ft | 105 kts | 212° |
| 2026-05-04 10:59 | 14.50542 | 121.01013 | 5985 ft | 108 kts | 217° |
| 2026-05-04 10:59 | 14.49989 | 121.00510 | 6033 ft | 104 kts | 220° |
| 2026-05-04 10:59 | 14.49425 | 121.00023 | 6033 ft | 105 kts | 213° |
| 2026-05-04 10:59 | 14.48819 | 120.99612 | 6072 ft | 102 kts | 204° |
| 2026-05-04 11:00 | 14.48134 | 120.99393 | 6068 ft | 102 kts | 188° |
| 2026-05-04 11:01 | 14.44453 | 120.95792 | 5940 ft | 105 kts | 228° |
| 2026-05-04 11:02 | 14.43961 | 120.95209 | 5858 ft | 107 kts | 229° |
| 2026-05-04 11:02 | 14.43465 | 120.94653 | 5831 ft | 105 kts | 223° |
| 2026-05-04 11:05 | 14.36454 | 120.87071 | 4640 ft | 91 kts | 219° |
| 2026-05-04 11:06 | 14.35967 | 120.86630 | 4454 ft | 97 kts | 217° |
| 2026-05-04 11:06 | 14.35622 | 120.86049 | 4301 ft | 99 kts | 261° |
| 2026-05-04 11:06 | 14.35700 | 120.85372 | 4173 ft | 91 kts | 300° |
| 2026-05-04 11:06 | 14.36137 | 120.84933 | 3977 ft | 86 kts | 348° |
| 2026-05-04 11:08 | 14.39641 | 120.85583 | 3282 ft | 68 kts | 348° |
| 2026-05-04 11:10 | 14.42544 | 120.86365 | 2979 ft | 66 kts | 73° |
| 2026-05-04 11:12 | 14.44268 | 120.90084 | 2873 ft | 112 kts | 63° |
| 2026-05-04 11:12 | 14.44661 | 120.90791 | 2755 ft | 113 kts | 62° |
| 2026-05-04 11:12 | 14.45037 | 120.91518 | 2617 ft | 114 kts | 63° |
| 2026-05-04 11:12 | 14.45415 | 120.92213 | 2457 ft | 105 kts | 63° |
| 2026-05-04 11:13 | 14.45751 | 120.92818 | 2353 ft | 89 kts | 63° |
| 2026-05-04 11:13 | 14.46046 | 120.93344 | 2193 ft | 82 kts | 64° |
| 2026-05-04 11:13 | 14.46327 | 120.93852 | 1991 ft | 80 kts | 62° |
| 2026-05-04 11:13 | 14.46612 | 120.94347 | 1756 ft | 81 kts | 65° |
| 2026-05-04 11:14 | 14.46889 | 120.94826 | 1610 ft | 70 kts | 63° |
| 2026-05-04 11:14 | 14.47146 | 120.95250 | 1377 ft | 77 kts | 65° |
| 2026-05-04 11:14 | 14.47397 | 120.95755 | 1142 ft | 80 kts | 65° |
| 2026-05-04 11:16 | 14.49258 | 120.99056 | 375 ft | 81 kts | 62° |
| 2026-05-04 11:16 | 14.49526 | 120.99547 | 285 ft | 76 kts | 64° |
| 2026-05-04 11:16 | 14.49799 | 121.00037 | 172 ft | 78 kts | 64° |
| 2026-05-04 11:17 | 14.50065 | 121.00517 | 83 ft | 71 kts | 64° |
| 2026-05-04 11:17 | 14.50269 | 121.00899 | 77 ft | 52 kts | 61° |
| 2026-05-04 11:19 | 14.50897 | 121.01778 | 77 ft | 5 kts | 330° |
| 2026-05-04 11:19 | 14.50943 | 121.01733 | 77 ft | 13 kts | 314° |
| 2026-05-04 11:19 | 14.51029 | 121.01645 | 77 ft | 21 kts | 314° |
| 2026-05-04 11:19 | 14.51146 | 121.01526 | 77 ft | 23 kts | 319° |
| 2026-05-04 11:20 | 14.51246 | 121.01425 | 77 ft | 14 kts | 337° |
| 2026-05-04 11:20 | 14.51270 | 121.01430 | 77 ft | 0 kts | 28° |
| 2026-05-04 11:20 | 14.51283 | 121.01438 | 77 ft | 7 kts | 31° |
| 2026-05-04 11:22 | 14.52143 | 121.00635 | 77 ft | 12 kts | 43° |
| 2026-05-04 11:22 | 14.52108 | 121.00645 | 77 ft | 6 kts | 211° |
| 2026-05-04 11:24 | 14.51846 | 121.00618 | 77 ft | 4 kts | 174° |